createdAt,value
2022-08-09T00:01:03.138Z,98156.59
2022-08-09T00:04:05.954Z,98195.59
2022-08-09T00:06:22.741Z,98190.97
2022-08-09T00:08:52.396Z,98184.13
2022-08-09T00:11:27.752Z,98183.47
2022-08-09T00:14:19.382Z,98183.28
2022-08-09T00:16:57.973Z,98153.22
2022-08-09T00:19:27.821Z,98124.16
2022-08-09T00:21:57.069Z,98107.22
2022-08-09T00:24:27.235Z,98011.97
2022-08-09T00:26:57.590Z,98039.03
2022-08-09T00:30:10.049Z,98044.75
2022-08-09T00:32:26.524Z,97989.56
2022-08-09T00:34:58.749Z,98029.50
2022-08-09T00:37:32.349Z,98015.25
2022-08-09T00:40:12.257Z,98007.97
2022-08-09T00:44:14.429Z,98006.31
2022-08-09T00:45:34.902Z,98005.16
2022-08-09T00:48:06.230Z,97989.84
2022-08-09T00:50:37.892Z,97950.72
2022-08-09T00:53:10.166Z,97952.72
2022-08-09T00:56:04.807Z,97953.22
2022-08-09T00:58:31.632Z,97959.50
2022-08-09T01:01:00.736Z,97912.75
2022-08-09T01:03:46.554Z,97944.06
2022-08-09T01:06:25.568Z,97918.22
2022-08-09T01:09:13.743Z,97891.84
2022-08-09T01:11:55.484Z,97908.09
2022-08-09T01:14:30.602Z,97887.19
2022-08-09T01:17:04.956Z,97865.50
2022-08-09T01:20:02.437Z,97822.88
2022-08-09T01:23:00.086Z,97855.72
2022-08-09T01:26:02.272Z,97882.53
2022-08-09T01:28:32.999Z,97853.88
2022-08-09T01:31:06.121Z,97835.19
2022-08-09T01:33:39.853Z,97894.47
2022-08-09T01:36:13.521Z,97896.47
2022-08-09T01:38:50.575Z,97877.38
2022-08-09T01:41:26.073Z,97870.94
2022-08-09T01:44:00.408Z,97831.31
2022-08-09T01:46:31.553Z,97790.56
2022-08-09T01:49:10.309Z,97806.97
2022-08-09T01:51:54.360Z,97814.25
2022-08-09T01:54:27.107Z,97779.00
2022-08-09T01:57:04.176Z,97855.53
2022-08-09T01:59:40.939Z,97853.22
2022-08-09T02:02:21.857Z,97858.53
2022-08-09T02:04:51.921Z,97815.13
2022-08-09T02:08:40.185Z,97830.16
2022-08-09T02:10:18.202Z,97817.88
2022-08-09T02:13:01.870Z,97799.84
2022-08-09T02:15:49.639Z,97805.09
2022-08-09T02:18:23.784Z,97789.88
2022-08-09T02:21:03.957Z,97777.94
2022-08-09T02:23:43.118Z,97741.88
2022-08-09T02:26:27.244Z,97744.19
2022-08-09T02:28:59.561Z,97780.59
2022-08-09T02:31:35.665Z,97719.03
2022-08-09T02:34:13.749Z,97732.91
2022-08-09T02:36:58.554Z,97768.69
2022-08-09T02:39:33.722Z,97754.75
2022-08-09T02:42:13.151Z,97685.91
2022-08-09T02:44:44.870Z,97712.03
2022-08-09T02:47:16.787Z,97730.22
2022-08-09T02:49:55.401Z,97685.91
2022-08-09T02:52:48.587Z,97730.22
2022-08-09T02:55:46.221Z,97676.00
2022-08-09T02:58:35.966Z,97679.31
2022-08-09T03:01:10.620Z,97743.19
2022-08-09T03:04:17.131Z,97727.66
2022-08-09T03:06:50.282Z,97753.09
2022-08-09T03:09:26.924Z,97695.03
2022-08-09T03:12:11.378Z,97753.09
2022-08-09T03:14:45.744Z,97774.69
2022-08-09T03:17:16.589Z,97781.47
2022-08-09T03:20:03.011Z,97814.28
2022-08-09T03:22:41.855Z,97805.84
2022-08-09T03:25:26.446Z,97752.22
2022-08-09T03:28:11.169Z,97813.94
2022-08-09T03:30:40.360Z,97792.59
2022-08-09T03:33:18.507Z,97839.31
2022-08-09T03:36:15.840Z,97765.97
2022-08-09T03:38:48.670Z,97781.72
2022-08-09T03:41:29.928Z,97839.88
2022-08-09T03:44:07.936Z,97880.78
2022-08-09T03:46:38.108Z,97824.97
2022-08-09T03:49:09.614Z,97911.31
2022-08-09T03:51:57.089Z,97920.28
2022-08-09T03:54:31.781Z,97906.56
2022-08-09T03:57:18.163Z,97943.53
2022-08-09T03:59:55.056Z,97996.63
2022-08-09T04:02:27.623Z,98008.94
2022-08-09T04:04:58.906Z,98088.53
2022-08-09T04:07:46.991Z,98116.44
2022-08-09T04:10:20.330Z,98151.66
2022-08-09T04:12:51.567Z,98178.91
2022-08-09T04:15:39.083Z,98212.78
2022-08-09T04:18:16.663Z,98253.84
2022-08-09T04:20:47.880Z,98300.88
2022-08-09T04:23:18.000Z,98361.56
2022-08-09T04:25:53.063Z,98386.34
2022-08-09T04:28:33.761Z,98419.25
2022-08-09T04:31:09.311Z,98454.19
2022-08-09T04:33:51.684Z,98442.22
2022-08-09T04:36:26.127Z,98550.03
2022-08-09T04:38:57.505Z,98530.38
2022-08-09T04:41:32.334Z,98590.31
2022-08-09T04:44:05.962Z,98693.63
2022-08-09T04:46:58.987Z,98724.41
2022-08-09T04:52:45.654Z,98976.06
2022-08-09T04:55:15.599Z,99080.75
2022-08-09T04:57:54.229Z,99189.00
2022-08-09T05:01:28.104Z,99287.31
2022-08-09T05:03:59.229Z,99496.78
2022-08-09T05:06:35.318Z,99592.50
2022-08-09T05:09:04.281Z,99694.44
2022-08-09T05:11:35.959Z,99829.47
2022-08-09T05:14:10.099Z,99928.50
2022-08-09T05:17:01.443Z,99981.00
2022-08-09T05:19:31.775Z,100153.56
2022-08-09T05:22:43.950Z,100291.50
2022-08-09T05:25:17.083Z,100359.16
2022-08-09T05:30:49.256Z,100576.72
2022-08-09T05:33:32.928Z,100674.16
2022-08-09T05:36:19.129Z,100853.13
2022-08-09T05:38:58.268Z,100987.19
2022-08-09T05:41:27.405Z,101056.00
2022-08-09T05:44:04.262Z,101151.44
2022-08-09T05:47:13.315Z,101303.47
2022-08-09T05:50:32.426Z,101419.84
2022-08-09T05:53:32.530Z,101430.16
2022-08-09T05:56:16.262Z,101568.25
2022-08-09T05:58:52.077Z,101581.09
2022-08-09T06:01:24.857Z,101675.25
2022-08-09T06:04:17.122Z,101787.88
2022-08-09T06:07:04.735Z,101871.03
2022-08-09T06:10:15.873Z,101936.91
2022-08-09T06:13:18.702Z,102022.75
2022-08-09T06:15:51.243Z,102072.97
2022-08-09T06:18:41.728Z,102089.97
2022-08-09T06:21:26.480Z,102171.56
2022-08-09T06:24:12.211Z,102282.38
2022-08-09T06:26:45.402Z,102324.31
2022-08-09T06:29:22.955Z,102360.81
2022-08-09T06:32:17.269Z,102468.94
2022-08-09T06:34:53.148Z,102522.72
2022-08-09T06:37:28.927Z,102555.84
2022-08-09T06:40:02.592Z,102555.13
2022-08-09T06:42:54.559Z,102495.97
2022-08-09T06:46:06.745Z,102517.69
2022-08-09T06:48:30.610Z,102601.44
2022-08-09T06:51:11.591Z,102651.72
2022-08-09T06:53:49.962Z,102615.03
2022-08-09T06:56:21.788Z,102651.19
2022-08-09T07:00:54.582Z,102610.28
2022-08-09T07:02:06.783Z,102565.75
2022-08-09T07:04:41.981Z,102625.16
2022-08-09T07:08:00.670Z,102697.84
2022-08-09T07:10:32.191Z,102777.88
2022-08-09T07:13:18.638Z,102796.72
2022-08-09T07:16:41.781Z,102935.84
2022-08-09T07:19:02.404Z,102937.59
2022-08-09T07:21:57.047Z,102996.44
2022-08-09T07:24:49.596Z,103034.09
2022-08-09T07:27:33.830Z,103144.72
2022-08-09T07:30:08.601Z,103188.59
2022-08-09T07:32:48.310Z,103139.09
2022-08-09T07:35:26.001Z,103193.03
2022-08-09T07:38:16.609Z,103241.63
2022-08-09T07:41:13.733Z,103176.53
2022-08-09T07:43:56.551Z,103310.16
2022-08-09T07:46:30.083Z,103294.59
2022-08-09T07:49:23.918Z,103344.94
2022-08-09T07:52:17.724Z,103352.84
2022-08-09T07:55:08.733Z,103374.91
2022-08-09T07:57:59.927Z,103513.03
2022-08-09T08:00:36.404Z,103651.88
2022-08-09T08:03:26.881Z,103636.00
2022-08-09T08:06:10.334Z,103677.00
2022-08-09T08:09:03.157Z,103787.09
2022-08-09T08:12:10.047Z,103899.53
2022-08-09T08:15:02.311Z,103952.56
2022-08-09T08:17:54.966Z,103968.38
2022-08-09T08:20:39.000Z,103913.72
2022-08-09T08:23:27.231Z,104065.56
2022-08-09T08:26:55.731Z,104201.16
2022-08-09T08:30:20.485Z,104360.59
2022-08-09T08:32:59.731Z,104329.47
2022-08-09T08:35:58.398Z,104386.53
2022-08-09T08:38:23.653Z,104467.34
2022-08-09T08:41:06.172Z,104422.16
2022-08-09T08:44:03.631Z,104451.25
2022-08-09T08:47:02.689Z,104289.84
2022-08-09T08:50:02.698Z,104293.78
2022-08-09T08:55:23.246Z,104192.44
2022-08-09T08:57:56.365Z,104034.09
2022-08-09T09:00:34.256Z,103877.44
2022-08-09T09:03:25.183Z,103646.34
2022-08-09T09:06:09.605Z,103628.91
2022-08-09T09:08:42.320Z,103533.91
2022-08-09T09:11:17.368Z,103544.16
2022-08-09T09:13:56.620Z,103559.47
2022-08-09T09:16:31.403Z,103505.03
2022-08-09T09:22:04.068Z,103326.94
2022-08-09T09:24:43.639Z,103272.91
2022-08-09T09:27:22.142Z,103285.47
2022-08-09T09:30:34.536Z,103528.72
2022-08-09T09:33:17.555Z,103845.69
2022-08-09T09:36:01.680Z,103918.56
2022-08-09T09:38:43.291Z,104173.38
2022-08-09T09:41:33.304Z,104382.16
2022-08-09T09:44:12.760Z,104434.22
2022-08-09T09:46:51.293Z,104977.72
2022-08-09T09:50:07.111Z,105352.84
2022-08-09T09:52:52.732Z,105386.09
2022-08-09T09:55:27.782Z,105097.13
2022-08-09T09:58:16.557Z,104880.63
2022-08-09T10:00:54.519Z,104725.88
2022-08-09T10:03:57.170Z,104782.75
2022-08-09T10:06:27.872Z,105109.16
2022-08-09T10:09:22.097Z,105753.84
2022-08-09T10:12:14.288Z,106170.38
2022-08-09T10:14:48.698Z,105763.06
2022-08-09T10:17:40.759Z,105424.44
2022-08-09T10:20:35.425Z,105016.50
2022-08-09T10:23:19.925Z,105518.44
2022-08-09T10:26:08.093Z,105565.44
2022-08-09T10:28:48.604Z,105362.88
2022-08-09T10:34:33.614Z,104682.16
2022-08-09T10:37:26.465Z,104435.59
2022-08-09T10:40:02.314Z,104916.03
2022-08-09T10:42:35.753Z,105872.22
2022-08-09T10:45:16.667Z,106985.59
2022-08-09T10:48:13.237Z,107803.81
2022-08-09T10:51:13.733Z,108776.66
2022-08-09T10:53:54.631Z,109032.19
2022-08-09T10:56:27.232Z,108916.88
2022-08-09T10:59:03.443Z,109224.75
2022-08-09T11:03:27.582Z,109012.25
2022-08-09T11:04:33.109Z,109264.78
2022-08-09T11:08:33.185Z,109851.53
2022-08-09T11:11:00.800Z,109994.78
2022-08-09T11:13:49.825Z,109378.28
2022-08-09T11:17:03.864Z,109401.97
2022-08-09T11:20:07.804Z,109117.94
2022-08-09T11:23:10.199Z,109386.66
2022-08-09T11:25:54.688Z,109494.72
2022-08-09T11:28:56.432Z,109565.16
2022-08-09T11:32:09.164Z,109910.13
2022-08-09T11:34:48.393Z,110147.22
2022-08-09T11:37:40.580Z,109698.81
2022-08-09T11:40:18.099Z,110015.50
2022-08-09T11:42:54.517Z,109646.72
2022-08-09T11:45:42.513Z,109648.00
2022-08-09T11:48:31.793Z,109980.13
2022-08-09T11:51:19.509Z,109733.19
2022-08-09T11:54:28.152Z,109328.88
2022-08-09T11:57:56.448Z,109059.31
2022-08-09T12:00:35.170Z,108682.94
2022-08-09T12:03:54.876Z,108423.41
2022-08-09T12:06:24.672Z,108362.34
2022-08-09T12:09:27.570Z,107801.25
2022-08-09T12:16:48.653Z,106456.38
2022-08-09T12:19:40.521Z,106539.28
2022-08-09T12:22:15.121Z,106454.69
2022-08-09T12:24:43.629Z,106235.19
2022-08-09T12:29:11.255Z,106019.56
2022-08-09T12:34:36.233Z,105908.59
2022-08-09T12:37:37.836Z,105916.00
2022-08-09T12:41:16.553Z,105847.84
2022-08-09T12:53:52.713Z,105914.19
2022-08-09T12:56:53.794Z,105849.38
2022-08-09T12:59:39.688Z,105932.47
2022-08-09T13:03:54.050Z,105642.28
2022-08-09T13:09:55.539Z,105458.88
2022-08-09T13:12:40.091Z,105592.38
2022-08-09T13:15:36.259Z,106132.34
2022-08-09T13:18:17.290Z,106276.41
2022-08-09T13:21:04.488Z,106431.09
2022-08-09T13:24:42.348Z,106335.28
2022-08-09T13:30:50.715Z,106034.78
2022-08-09T13:38:56.225Z,105656.38
2022-08-09T13:42:38.017Z,105618.44
2022-08-09T13:45:32.405Z,105506.72
2022-08-09T13:56:33.838Z,106573.81
2022-08-09T13:59:47.578Z,107125.63
2022-08-09T14:02:25.554Z,107348.31
2022-08-09T14:16:28.274Z,108734.53
2022-08-09T14:59:08.631Z,108715.34
2022-08-09T15:02:28.563Z,108589.41
2022-08-09T15:05:01.033Z,108348.47
2022-08-09T15:11:12.817Z,108170.59
2022-08-09T15:14:04.450Z,108085.47
2022-08-09T15:16:54.349Z,107995.84
2022-08-09T15:19:59.520Z,107928.00
2022-08-09T15:24:02.109Z,107719.41
2022-08-09T15:34:35.126Z,106424.25
2022-08-09T15:37:38.072Z,106787.00
2022-08-09T15:40:31.971Z,107408.84
2022-08-09T15:43:03.107Z,107804.13
2022-08-09T15:46:07.576Z,108125.97
2022-08-09T15:48:35.067Z,108439.59
2022-08-09T15:51:30.092Z,108749.16
2022-08-09T15:54:20.090Z,108540.47
2022-08-09T15:57:19.002Z,108160.19
2022-08-09T16:00:14.233Z,107998.22
2022-08-09T16:21:56.351Z,104780.59
2022-08-09T16:24:32.879Z,104538.75
2022-08-09T16:27:05.187Z,104382.47
2022-08-09T16:29:50.380Z,104308.22
2022-08-09T16:32:33.949Z,104227.78
2022-08-09T16:35:03.240Z,104161.94
2022-08-09T16:37:55.229Z,103955.34
2022-08-09T16:40:40.251Z,103806.91
2022-08-09T16:43:12.085Z,103670.75
2022-08-09T16:45:44.398Z,103505.47
2022-08-09T16:48:38.012Z,103353.81
2022-08-09T16:51:08.353Z,103243.69
2022-08-09T16:54:09.115Z,103172.44
2022-08-09T16:56:33.068Z,103123.16
2022-08-09T16:59:06.733Z,103049.22
2022-08-09T17:01:39.529Z,102998.69
2022-08-09T17:04:21.542Z,102936.84
2022-08-09T17:08:41.409Z,102865.59
2022-08-09T17:09:47.062Z,102794.94
2022-08-09T17:12:17.034Z,102752.31
2022-08-09T17:18:16.943Z,102582.53
2022-08-09T17:21:46.608Z,102579.66
2022-08-09T17:24:27.317Z,102540.53
2022-08-09T17:26:58.264Z,102467.25
2022-08-09T17:29:31.843Z,102475.25
2022-08-09T17:32:08.877Z,102462.09
2022-08-09T17:35:04.174Z,102390.31
2022-08-09T17:37:32.667Z,102312.44
2022-08-09T17:40:25.955Z,102280.06
2022-08-09T17:42:59.595Z,102217.44
2022-08-09T17:46:02.696Z,102141.47
2022-08-09T17:48:29.130Z,102126.22
2022-08-09T17:51:06.595Z,102100.84
2022-08-09T17:53:43.274Z,102041.88
2022-08-09T17:56:18.330Z,102013.28
2022-08-09T17:58:49.792Z,102013.81
2022-08-09T18:01:22.560Z,101973.22
2022-08-09T18:03:52.478Z,101933.81
2022-08-09T18:06:30.753Z,101924.28
2022-08-09T18:09:03.394Z,101854.97
2022-08-09T18:12:05.872Z,101770.75
2022-08-09T18:14:24.937Z,101772.25
2022-08-09T18:16:54.570Z,101777.69
2022-08-09T18:20:56.438Z,101699.38
2022-08-09T18:22:17.141Z,101616.84
2022-08-09T18:24:46.443Z,101664.06
2022-08-09T18:27:49.207Z,101624.72
2022-08-09T18:30:40.807Z,101559.94
2022-08-09T18:32:55.025Z,101551.84
2022-08-09T18:35:59.312Z,101527.00
2022-08-09T18:38:12.571Z,101521.06
2022-08-09T18:40:43.089Z,101521.31
2022-08-09T18:43:13.882Z,101494.59
2022-08-09T18:46:46.425Z,101389.38
2022-08-09T18:48:42.473Z,101376.56
2022-08-09T18:51:10.629Z,101393.28
2022-08-09T18:54:01.905Z,101373.56
2022-08-09T18:56:28.597Z,101334.28
2022-08-09T18:58:57.658Z,101255.91
2022-08-09T19:01:43.101Z,101151.69
2022-08-09T19:04:11.746Z,101178.06
2022-08-09T19:06:50.443Z,101189.28
2022-08-09T19:09:34.035Z,101169.22
2022-08-09T19:12:10.178Z,101134.47
2022-08-09T19:14:39.911Z,101144.94
2022-08-09T19:17:13.610Z,101152.72
2022-08-09T19:19:42.269Z,101177.38
2022-08-09T19:22:15.156Z,101129.06
2022-08-09T19:25:07.406Z,101104.31
2022-08-09T19:27:36.057Z,101068.69
2022-08-09T19:30:23.105Z,101058.91
2022-08-09T19:32:55.996Z,101081.66
2022-08-09T19:35:28.416Z,101030.34
2022-08-09T19:38:16.727Z,100992.50
2022-08-09T19:40:49.803Z,100933.28
2022-08-09T19:44:01.815Z,100909.50
2022-08-09T19:46:14.372Z,100860.38
2022-08-09T19:49:01.377Z,100828.75
2022-08-09T19:51:31.395Z,100771.88
2022-08-09T19:53:59.759Z,100697.44
2022-08-09T19:56:29.482Z,100657.56
2022-08-09T19:59:27.798Z,100660.06
2022-08-09T20:02:05.269Z,100649.63
2022-08-09T20:04:40.328Z,100609.66
2022-08-09T20:07:15.961Z,100599.22
2022-08-09T20:09:51.207Z,100577.38
2022-08-09T20:12:31.838Z,100558.25
2022-08-09T20:15:10.410Z,100538.72
2022-08-09T20:17:57.252Z,100514.78
2022-08-09T20:20:27.364Z,100530.28
2022-08-09T20:22:56.316Z,100533.66
2022-08-09T20:25:26.848Z,100426.53
2022-08-09T20:27:55.802Z,100490.19
2022-08-09T20:30:25.076Z,100425.38
2022-08-09T20:33:02.732Z,100361.81
2022-08-09T20:35:36.212Z,100268.75
2022-08-09T20:38:22.105Z,100182.81
2022-08-09T20:40:53.186Z,100163.09
2022-08-09T20:43:24.640Z,100169.31
2022-08-09T20:46:33.330Z,100170.06
2022-08-09T20:48:45.164Z,100133.69
2022-08-09T20:51:19.289Z,100131.72
2022-08-09T20:53:48.712Z,100112.91
2022-08-09T20:56:20.927Z,100086.38
2022-08-09T20:58:54.195Z,100038.25
2022-08-09T21:01:35.398Z,100061.22
2022-08-09T21:05:55.077Z,100133.72
2022-08-09T21:07:12.565Z,100073.84
2022-08-09T21:09:55.421Z,100105.09
2022-08-09T21:15:15.345Z,100063.75
2022-08-09T21:18:23.351Z,100179.19
2022-08-09T21:20:35.506Z,100134.81
2022-08-09T21:23:09.231Z,100069.16
2022-08-09T21:25:59.813Z,100076.00
2022-08-09T21:28:34.811Z,100113.69
2022-08-09T21:31:17.472Z,100145.63
2022-08-09T21:33:52.149Z,100184.34
2022-08-09T21:36:23.186Z,100115.31
2022-08-09T21:38:57.311Z,100175.28
2022-08-09T21:42:04.669Z,100132.31
2022-08-09T21:44:33.111Z,100133.72
2022-08-09T21:47:07.481Z,100065.06
2022-08-09T21:49:39.656Z,100136.69
2022-08-09T21:52:18.252Z,100108.03
2022-08-09T21:55:02.926Z,100094.34
2022-08-09T21:57:39.335Z,100073.47
2022-08-09T22:00:26.821Z,100149.13
2022-08-09T22:03:04.582Z,100160.25
2022-08-09T22:05:37.259Z,100123.03
2022-08-09T22:08:13.690Z,100142.78
2022-08-09T22:11:05.129Z,100125.31
2022-08-09T22:13:35.499Z,100125.31
2022-08-09T22:16:07.928Z,100074.16
2022-08-09T22:18:37.906Z,100105.09
2022-08-09T22:21:09.936Z,100111.53
2022-08-09T22:24:03.323Z,100122.94
2022-08-09T22:26:38.441Z,100092.66
2022-08-09T22:29:09.856Z,100083.16
2022-08-09T22:31:50.662Z,100057.34
2022-08-09T22:34:27.049Z,99989.13
2022-08-09T22:36:56.626Z,100025.97
2022-08-09T22:39:56.167Z,100023.13
2022-08-09T22:42:36.423Z,100068.16
2022-08-09T22:48:10.231Z,100003.59
2022-08-09T22:48:18.483Z,100026.50
2022-08-09T22:50:42.775Z,99944.72
2022-08-09T22:53:21.502Z,100063.09
2022-08-09T22:56:30.016Z,99999.78
2022-08-09T22:58:40.462Z,99990.88
2022-08-09T23:01:10.791Z,99972.59
2022-08-09T23:04:04.112Z,99893.06
2022-08-09T23:06:50.496Z,99932.59
2022-08-09T23:09:17.817Z,99864.91
2022-08-09T23:11:46.185Z,99861.94
2022-08-09T23:14:17.694Z,99872.34
2022-08-09T23:17:09.661Z,99856.06
2022-08-09T23:20:06.012Z,99738.69
2022-08-09T23:22:33.563Z,99678.53
2022-08-09T23:25:02.068Z,99670.03
2022-08-09T23:27:32.718Z,99631.19
2022-08-09T23:30:02.689Z,99523.75
2022-08-09T23:32:31.001Z,99506.53
2022-08-09T23:35:03.285Z,99481.41
2022-08-09T23:37:31.722Z,99511.25
2022-08-09T23:40:01.411Z,99500.19
2022-08-09T23:42:33.447Z,99485.94
2022-08-09T23:45:04.185Z,99459.69
2022-08-09T23:47:35.663Z,99381.28
2022-08-09T23:50:06.238Z,99361.38
2022-08-09T23:52:34.846Z,99315.69
2022-08-09T23:55:03.580Z,99358.56
2022-08-09T23:57:32.827Z,99371.59
